La Grange, TX

6:42 PM CST on November 17, 2019 (GMT -0600)
La Grange

Weather History for K3T5 - August, 2019

Change the Weather History Date:

Saturday, August 10, 2019

  Actual Average (KAUS) Record (KAUS)
Temperature  
Mean Temperature 88 °F -  
Max Temperature 101 °F 94 °F 107 °F (1953)
Min Temperature 76 °F 70 °F 63 °F (1989)
Cooling Degree Days 23    
Growing Degree Days 38 (Base 50)    
Moisture  
Dew Point 75 °F    
Average Humidity 71    
Maximum Humidity 100    
Minimum Humidity 36    
Precipitation  
Precipitation 0.00 in - - ()
Sea Level Pressure  
Sea Level Pressure 29.92 in    
Wind  
Wind Speed 3 mph (South)    
Max Wind Speed 7 mph    
Max Gust Speed -    
Visibility 9 miles    
Events      
Averages and records for this station are not official NWS values.
T = Trace of Precipitation, MM = Missing Value Source: NWS Daily Summary

Daily Weather History Graph

Daily Weather History Graph

Search for Another Location

Airport or City:

Astronomy

Aug. 10, 2019 Rise Set
Actual Time 6:52 AM CDT 8:13 PM CDT
Civil Twilight 6:26 AM CDT 8:38 PM CDT
Nautical Twilight 5:56 AM CDT 9:09 PM CDT
Astronomical Twilight 5:25 AM CDT 9:40 PM CDT
Moon 4:48 PM CDT (8/10) 2:36 AM CDT (8/10)
Length of Visible Light 14h 12m
Length of Day
13h 21m
Waxing Gibbous, 79% of the Moon is Illuminated
Aug 10
Waxing Gibbous
Aug 15
Full
Aug 23
Last Quarter
Aug 30
New
Sep 5
First Quarter

Hourly Weather History & Observations

Time (CDT) Temp. Heat Index Dew Point Humidity Pressure Visibility Wind Dir Wind Speed Gust Speed Precip Events Conditions
12:15 AM 81.0 °F 88.4 °F 77.7 °F 90% 29.93 in 10.0 mi South 3.5 mph - N/A   Clear
12:35 AM 80.6 °F 87.5 °F 77.9 °F 91% 29.93 in 10.0 mi Calm Calm - N/A   Clear
12:55 AM 80.1 °F 86.4 °F 78.1 °F 94% 29.93 in 10.0 mi Calm Calm - N/A   Clear
1:15 AM 79.3 °F - 78.8 °F 98% 29.93 in 10.0 mi Calm Calm - N/A   Clear
1:35 AM 79.0 °F - 78.8 °F 99% 29.93 in 10.0 mi Calm Calm - N/A   Clear
1:55 AM 78.6 °F - 78.6 °F 100% 29.92 in 10.0 mi Calm Calm - N/A   Clear
2:15 AM 78.3 °F - 78.3 °F 100% 29.91 in 10.0 mi Calm Calm - N/A   Clear
2:35 AM 78.3 °F - 78.3 °F 100% 29.91 in 10.0 mi Calm Calm - N/A   Clear
3:15 AM 78.1 °F - 78.1 °F 100% 29.91 in 7.0 mi Calm Calm - N/A   Clear
3:55 AM 77.0 °F - 77.0 °F 100% 29.92 in 5.0 mi Calm Calm - N/A   Clear
4:15 AM 76.3 °F - 76.3 °F 100% 29.91 in 7.0 mi Calm Calm - N/A   Clear
4:35 AM 77.7 °F - 77.7 °F 100% 29.91 in 7.0 mi South 3.5 mph - N/A   Scattered Clouds
4:55 AM 77.4 °F - 77.4 °F 100% 29.91 in 7.0 mi Calm Calm - N/A   Scattered Clouds
5:15 AM 77.4 °F - 77.4 °F 100% 29.91 in 7.0 mi Calm Calm - N/A   Clear
5:35 AM 77.4 °F - 77.4 °F 100% 29.92 in 7.0 mi Calm Calm - N/A   Clear
5:55 AM 77.2 °F - 77.2 °F 100% 29.93 in 7.0 mi Calm Calm - N/A   Clear
6:15 AM 76.5 °F - 76.5 °F 100% 29.93 in 5.0 mi Calm Calm - N/A   Clear
6:35 AM 76.3 °F - 76.3 °F 100% 29.93 in 5.0 mi Calm Calm - N/A   Clear
6:55 AM 76.3 °F - 76.3 °F 100% 29.94 in 2.5 mi Calm Calm - N/A   Clear
7:15 AM 76.1 °F - 76.1 °F 100% 29.95 in 2.0 mi Calm Calm - N/A   Mostly Cloudy
7:35 AM 77.0 °F - 77.0 °F 100% 29.96 in 2.5 mi Calm Calm - N/A   Overcast
7:55 AM 78.3 °F - 78.3 °F 100% 29.96 in 4.0 mi Calm Calm - N/A   Overcast
8:15 AM 79.0 °F - 79.0 °F 100% 29.97 in 4.0 mi Calm Calm - N/A   Overcast
8:35 AM 80.1 °F 87.4 °F 80.1 °F 100% 29.97 in 5.0 mi Calm Calm - N/A   Overcast
8:55 AM 81.5 °F 92.6 °F 81.5 °F 100% 29.98 in 7.0 mi Calm Calm - N/A   Mostly Cloudy
9:15 AM 84.6 °F 98.6 °F 80.4 °F 87% 29.98 in 10.0 mi SSW 4.6 mph - N/A   Mostly Cloudy
9:35 AM 85.5 °F 99.1 °F 79.5 °F 82% 29.98 in 10.0 mi South 4.6 mph - N/A   Mostly Cloudy
9:55 AM 86.0 °F 98.8 °F 78.3 °F 78% 29.98 in 10.0 mi SSW 5.8 mph - N/A   Overcast
10:15 AM 88.2 °F 101.2 °F 77.7 °F 71% 29.98 in 10.0 mi South 6.9 mph - N/A   Mostly Cloudy
10:35 AM 88.7 °F 100.4 °F 76.6 °F 67% 29.98 in 10.0 mi SSW 6.9 mph - N/A   Mostly Cloudy
10:55 AM 90.7 °F 101.9 °F 75.4 °F 61% 29.98 in 10.0 mi South 6.9 mph - N/A   Scattered Clouds
11:15 AM 92.5 °F 105.3 °F 76.1 °F 59% 29.98 in 10.0 mi South 3.5 mph - N/A   Mostly Cloudy
11:35 AM 92.8 °F 104.8 °F 75.4 °F 57% 29.98 in 10.0 mi SW 5.8 mph - N/A   Scattered Clouds
11:55 AM 91.6 °F 102.9 °F 75.2 °F 59% 29.97 in 10.0 mi SW 4.6 mph - N/A   Mostly Cloudy
12:15 PM 94.3 °F 105.6 °F 74.7 °F 53% 29.97 in 10.0 mi SSE 5.8 mph - N/A   Scattered Clouds
12:35 PM 93.0 °F 103.2 °F 74.3 °F 54% 29.96 in 10.0 mi SSW 4.6 mph - N/A   Scattered Clouds
12:55 PM 94.8 °F 105.5 °F 74.1 °F 51% 29.96 in 10.0 mi SW 5.8 mph - N/A   Scattered Clouds
1:15 PM 96.4 °F 106.5 °F 73.4 °F 47% 29.94 in 10.0 mi SSE 4.6 mph - N/A   Scattered Clouds
1:35 PM 96.4 °F 107.2 °F 73.9 °F 48% 29.94 in 10.0 mi SSW 5.8 mph - N/A   Scattered Clouds
1:55 PM 96.8 °F 106.6 °F 73.2 °F 46% 29.93 in 10.0 mi SE 4.6 mph - N/A   Scattered Clouds
2:15 PM 98.2 °F 108.4 °F 72.9 °F 44% 29.92 in 10.0 mi SSE 4.6 mph - N/A   Mostly Cloudy
2:35 PM 97.9 °F 106.8 °F 72.1 °F 43% 29.92 in 10.0 mi SE 4.6 mph - N/A   Scattered Clouds
2:55 PM 98.8 °F 108.1 °F 72.0 °F 42% 29.91 in 10.0 mi SSW 5.8 mph - N/A   Scattered Clouds
3:15 PM 98.4 °F 106.5 °F 71.2 °F 41% 29.91 in 10.0 mi South 3.5 mph - N/A   Scattered Clouds
3:35 PM 99.9 °F 108.2 °F 70.7 °F 39% 29.89 in 10.0 mi SSW 5.8 mph - N/A   Scattered Clouds
3:55 PM 100.2 °F 107.4 °F 70.0 °F 37% 29.88 in 10.0 mi Calm Calm - N/A   Clear
4:15 PM 100.9 °F 109.7 °F 71.4 °F 38% 29.88 in 10.0 mi SSW 5.8 mph - N/A   Scattered Clouds
4:35 PM 100.8 °F 107.8 °F 69.6 °F 36% 29.87 in 10.0 mi SSE 4.6 mph - N/A   Scattered Clouds
4:55 PM 100.4 °F 107.8 °F 70.2 °F 37% 29.86 in 10.0 mi South 4.6 mph - N/A   Clear
5:15 PM 100.8 °F 109.3 °F 70.7 °F 38% 29.86 in 10.0 mi South 3.5 mph - N/A   Scattered Clouds
5:35 PM 100.8 °F 109.3 °F 70.7 °F 38% 29.86 in 10.0 mi South 4.6 mph - N/A   Scattered Clouds
5:55 PM 100.6 °F 108.9 °F 70.5 °F 38% 29.85 in 10.0 mi South 6.9 mph - N/A   Scattered Clouds
6:15 PM 100.4 °F 109.3 °F 71.1 °F 39% 29.85 in 10.0 mi South 6.9 mph - N/A   Scattered Clouds
6:35 PM 99.7 °F 108.5 °F 71.1 °F 40% 29.85 in 10.0 mi SSE 5.8 mph - N/A   Scattered Clouds
6:55 PM 99.0 °F 107.7 °F 71.8 °F 41% 29.85 in 10.0 mi South 6.9 mph - N/A   Scattered Clouds
7:15 PM 97.7 °F 107.1 °F 72.1 °F 44% 29.86 in 10.0 mi South 6.9 mph - N/A   Scattered Clouds
7:35 PM 96.3 °F 105.3 °F 72.3 °F 46% 29.86 in 10.0 mi South 5.8 mph - N/A   Clear
7:55 PM 94.6 °F 103.0 °F 72.1 °F 48% 29.87 in 10.0 mi South 5.8 mph - N/A   Clear
8:15 PM 93.2 °F 101.7 °F 72.5 °F 51% 29.88 in 10.0 mi SSE 5.8 mph - N/A   Clear
8:35 PM 91.8 °F 100.3 °F 72.9 °F 54% 29.89 in 10.0 mi South 4.6 mph - N/A   Clear
8:55 PM 90.5 °F 99.2 °F 73.6 °F 57% 29.90 in 10.0 mi SSE 4.6 mph - N/A   Clear
9:15 PM 89.4 °F 98.9 °F 74.3 °F 61% 29.91 in 10.0 mi SSE 4.6 mph - N/A   Clear
9:35 PM 88.7 °F 98.7 °F 75.2 °F 64% 29.91 in 10.0 mi SSE 5.8 mph - N/A   Clear
9:55 PM 87.6 °F 97.6 °F 75.6 °F 67% 29.92 in 10.0 mi South 5.8 mph - N/A   Clear
10:15 PM 86.9 °F 97.3 °F 76.1 °F 70% 29.93 in 10.0 mi SSE 4.6 mph - N/A   Clear
10:35 PM 86.0 °F 96.4 °F 76.6 °F 73% 29.93 in 10.0 mi South 4.6 mph - N/A   Clear
10:55 PM 85.1 °F 96.2 °F 77.4 °F 78% 29.94 in 10.0 mi South 4.6 mph - N/A   Clear
11:15 PM 84.6 °F 95.5 °F 77.9 °F 80% 29.95 in 10.0 mi South 4.6 mph - N/A   Clear
11:35 PM 84.0 °F 94.8 °F 78.1 °F 82% 29.95 in 10.0 mi South 3.5 mph - N/A   Clear
11:55 PM 83.3 °F 94.2 °F 78.6 °F 86% 29.96 in 10.0 mi South 3.5 mph - N/A   Clear